Time;durP1;ratioP1;P1;durP2;ratioP2;P2;SDS_P1;SDS_P2;PMS_P1;PMS_P2;Temp;Humidity;BMP_temperature;BMP_pressure;BME280_temperature;BME280_humidity;BME280_pressure;Samples;Min_cycle;Max_cycle;Signal;HPM_P1;HPM_P2
2023/04/15 00:02:30;;;;;;;5.00;3.20;;;;;;;;;;107529;285;38807;-30
2023/04/15 00:05:04;;;;;;;4.80;3.30;;;;;;;;;;107538;283;39746;-30
2023/04/15 00:07:39;;;;;;;5.10;3.50;;;;;;;;;;107564;283;48941;-30
2023/04/15 00:10:14;;;;;;;5.10;3.30;;;;;;;;;;107532;285;42140;-30
2023/04/15 00:12:52;;;;;;;5.00;3.50;;;;;;;;;;107507;283;38836;-30
2023/04/15 00:15:28;;;;;;;4.90;3.50;;;;;;;;;;107484;285;40313;-30
2023/04/15 00:18:02;;;;;;;4.80;3.20;;;;;;;;;;107550;283;42981;-29
2023/04/15 00:20:40;;;;;;;5.10;3.30;;;;;;;;;;107505;286;41932;-30
2023/04/15 00:23:16;;;;;;;5.20;3.50;;;;;;;;;;107519;283;38858;-30
2023/04/15 00:25:53;;;;;;;5.20;3.40;;;;;;;;;;107454;283;39702;-30
2023/04/15 00:28:29;;;;;;;4.90;3.50;;;;;;;;;;107538;283;42878;-30
2023/04/15 00:31:05;;;;;;;5.00;3.50;;;;;;;;;;107510;285;42299;-29
2023/04/15 00:33:42;;;;;;;4.90;3.20;;;;;;;;;;107530;284;39231;-29
2023/04/15 00:36:21;;;;;;;4.70;3.30;;;;;;;;;;107471;284;39879;-30
2023/04/15 00:38:54;;;;;;;5.10;3.40;;;;;;;;;;107568;285;42895;-30
2023/04/15 00:41:29;;;;;;;5.20;3.50;;;;;;;;;;107600;283;42178;-30
2023/04/15 00:44:04;;;;;;;5.20;3.30;;;;;;;;;;107636;283;41031;-30
2023/04/15 00:46:40;;;;;;;5.10;3.40;;;;;;;;;;107426;283;175332;-30
2023/04/15 00:49:15;;;;;;;5.00;3.50;;;;;;;;;;107593;283;44287;-30
2023/04/15 00:51:49;;;;;;;4.50;3.00;;;;;;;;;;107632;283;42160;-30
2023/04/15 00:54:24;;;;;;;5.10;3.70;;;;;;;;;;107651;284;38827;-30
2023/04/15 00:56:59;;;;;;;4.90;3.50;;;;;;;;;;107593;282;41068;-30
2023/04/15 00:59:35;;;;;;;4.80;3.40;;;;;;;;;;107673;283;45126;-30
2023/04/15 01:02:11;;;;;;;4.70;3.30;;;;;;;;;;107637;277;42205;-30
2023/04/15 01:04:48;;;;;;;4.60;3.20;;;;;;;;;;107614;283;39153;-30
2023/04/15 01:07:25;;;;;;;5.00;3.50;;;;;;;;;;107606;283;39733;-30
2023/04/15 01:10:02;;;;;;;4.70;3.20;;;;;;;;;;107620;283;44401;-30
2023/04/15 01:12:38;;;;;;;5.10;3.40;;;;;;;;;;107512;283;175675;-30
2023/04/15 01:15:13;;;;;;;5.10;3.60;;;;;;;;;;107638;283;40289;-30
2023/04/15 01:17:50;;;;;;;5.20;3.40;;;;;;;;;;107636;285;40863;-30
2023/04/15 01:20:26;;;;;;;5.40;3.50;;;;;;;;;;107634;281;42930;-30
2023/04/15 01:23:01;;;;;;;5.30;3.70;;;;;;;;;;107657;283;43291;-30
2023/04/15 01:25:37;;;;;;;4.90;3.30;;;;;;;;;;107623;277;38838;-30
2023/04/15 01:28:11;;;;;;;5.40;3.60;;;;;;;;;;107591;283;39937;-30
2023/04/15 01:30:47;;;;;;;5.80;3.50;;;;;;;;;;107628;283;42914;-30
2023/04/15 01:33:22;;;;;;;5.10;3.70;;;;;;;;;;107489;290;175677;-30
2023/04/15 01:36:00;;;;;;;5.40;3.50;;;;;;;;;;107619;283;39015;-30
2023/04/15 01:38:34;;;;;;;5.10;3.40;;;;;;;;;;107218;285;457909;-30
2023/04/15 01:41:10;;;;;;;5.30;3.50;;;;;;;;;;107554;283;44034;-30
2023/04/15 01:43:45;;;;;;;4.60;3.40;;;;;;;;;;107642;285;41875;-31
2023/04/15 01:46:20;;;;;;;4.70;3.40;;;;;;;;;;107614;290;38918;-30
2023/04/15 01:48:56;;;;;;;5.30;3.50;;;;;;;;;;107603;285;39861;-30
2023/04/15 01:51:30;;;;;;;4.80;3.30;;;;;;;;;;106956;283;894200;-30
2023/04/15 01:54:05;;;;;;;5.10;3.40;;;;;;;;;;107616;285;44375;-30
2023/04/15 01:56:39;;;;;;;5.30;3.50;;;;;;;;;;107626;281;38962;-30
2023/04/15 01:59:13;;;;;;;5.20;3.40;;;;;;;;;;107583;282;39855;-30
2023/04/15 02:01:48;;;;;;;5.00;3.50;;;;;;;;;;107600;285;43580;-30
2023/04/15 02:04:24;;;;;;;5.40;3.70;;;;;;;;;;107615;283;42273;-30
2023/04/15 02:06:57;;;;;;;5.30;3.40;;;;;;;;;;107626;277;38867;-30
2023/04/15 02:09:33;;;;;;;5.20;3.50;;;;;;;;;;107599;290;39795;-30
2023/04/15 02:12:09;;;;;;;5.10;3.50;;;;;;;;;;106993;285;893873;-30
2023/04/15 02:14:44;;;;;;;5.20;3.70;;;;;;;;;;107613;285;42160;-30
2023/04/15 02:17:20;;;;;;;5.00;3.60;;;;;;;;;;107622;283;38961;-30
2023/04/15 02:19:58;;;;;;;5.10;3.40;;;;;;;;;;107610;285;38760;-30
2023/04/15 02:22:34;;;;;;;4.60;3.30;;;;;;;;;;107613;285;43389;-30
2023/04/15 02:25:10;;;;;;;5.10;3.80;;;;;;;;;;107598;285;42240;-30
2023/04/15 02:27:44;;;;;;;5.10;3.60;;;;;;;;;;107618;283;38820;-30
2023/04/15 02:30:18;;;;;;;4.80;3.60;;;;;;;;;;107574;282;46524;-30
2023/04/15 02:32:54;;;;;;;4.70;3.50;;;;;;;;;;107650;285;42971;-30
2023/04/15 02:35:28;;;;;;;5.10;3.80;;;;;;;;;;107637;283;43279;-30
2023/04/15 02:38:02;;;;;;;4.90;3.30;;;;;;;;;;107636;283;39025;-30
2023/04/15 02:40:36;;;;;;;4.90;3.50;;;;;;;;;;107609;282;47946;-30
2023/04/15 02:43:11;;;;;;;4.90;3.40;;;;;;;;;;107476;283;175742;-30
2023/04/15 02:45:47;;;;;;;5.80;3.80;;;;;;;;;;107518;285;175776;-30
2023/04/15 02:48:24;;;;;;;5.20;3.80;;;;;;;;;;107635;285;38773;-30
2023/04/15 02:51:12;;;;;;;5.10;3.70;;;;;;;;;;107575;282;45489;-30
2023/04/15 02:53:46;;;;;;;5.20;3.70;;;;;;;;;;107626;285;43005;-30
2023/04/15 02:56:19;;;;;;;4.80;3.60;;;;;;;;;;107637;283;42253;-30
2023/04/15 02:58:56;;;;;;;5.30;3.90;;;;;;;;;;107587;282;38811;-30
2023/04/15 03:01:33;;;;;;;5.20;3.70;;;;;;;;;;107598;290;45526;-30
2023/04/15 03:04:08;;;;;;;5.00;3.50;;;;;;;;;;107629;285;43240;-30
2023/04/15 03:06:42;;;;;;;5.20;3.70;;;;;;;;;;107614;285;42292;-30
2023/04/15 03:09:16;;;;;;;5.10;3.60;;;;;;;;;;107585;282;39036;-30
2023/04/15 03:11:53;;;;;;;5.10;3.40;;;;;;;;;;107512;277;175711;-30
2023/04/15 03:14:29;;;;;;;5.10;3.70;;;;;;;;;;107613;282;42838;-30
2023/04/15 03:17:05;;;;;;;5.20;3.70;;;;;;;;;;107628;277;42261;-30
2023/04/15 03:19:38;;;;;;;5.20;3.70;;;;;;;;;;107582;283;38613;-30
2023/04/15 03:22:13;;;;;;;5.40;3.90;;;;;;;;;;107571;285;39882;-30
2023/04/15 03:24:50;;;;;;;5.00;3.60;;;;;;;;;;107589;285;42907;-30
2023/04/15 03:27:25;;;;;;;4.90;3.50;;;;;;;;;;107615;283;42176;-29
2023/04/15 03:30:00;;;;;;;5.00;3.70;;;;;;;;;;107547;282;38858;-29
2023/04/15 03:32:37;;;;;;;5.10;3.80;;;;;;;;;;107612;283;39718;-29
2023/04/15 03:35:13;;;;;;;5.20;3.90;;;;;;;;;;107595;283;43011;-31
2023/04/15 03:37:48;;;;;;;5.70;3.70;;;;;;;;;;107508;283;175710;-31
2023/04/15 03:40:23;;;;;;;5.60;3.90;;;;;;;;;;107582;283;40234;-31
2023/04/15 03:42:58;;;;;;;5.60;3.80;;;;;;;;;;107650;283;40879;-31
2023/04/15 03:45:33;;;;;;;5.40;4.00;;;;;;;;;;107624;286;43117;-31
2023/04/15 03:48:07;;;;;;;5.20;3.80;;;;;;;;;;107595;285;43379;-31
2023/04/15 03:50:50;;;;;;;5.20;3.80;;;;;;;;;;107570;283;38942;-31
2023/04/15 03:53:24;;;;;;;5.70;4.00;;;;;;;;;;107619;283;40927;-31
2023/04/15 03:55:59;;;;;;;5.10;3.90;;;;;;;;;;107593;281;44013;-31
2023/04/15 03:58:35;;;;;;;5.20;3.90;;;;;;;;;;107589;286;43278;-31
2023/04/15 04:01:09;;;;;;;5.70;4.10;;;;;;;;;;107569;282;38838;-31
2023/04/15 04:03:45;;;;;;;5.60;4.10;;;;;;;;;;107648;277;40920;-31
2023/04/15 04:06:19;;;;;;;5.70;4.10;;;;;;;;;;107585;283;44177;-31
2023/04/15 04:08:55;;;;;;;5.20;3.90;;;;;;;;;;107625;283;42444;-31
2023/04/15 04:11:30;;;;;;;6.00;4.10;;;;;;;;;;107608;285;39961;-31
2023/04/15 04:14:05;;;;;;;5.90;4.00;;;;;;;;;;107620;286;39915;-31
2023/04/15 04:16:42;;;;;;;5.70;4.10;;;;;;;;;;107611;285;42889;-31
2023/04/15 04:19:18;;;;;;;5.70;3.80;;;;;;;;;;107607;283;43090;-31
2023/04/15 04:21:53;;;;;;;5.60;4.30;;;;;;;;;;106968;283;895547;-31
2023/04/15 04:24:30;;;;;;;5.50;4.00;;;;;;;;;;107625;282;39715;-31
2023/04/15 04:27:05;;;;;;;5.90;4.10;;;;;;;;;;107603;286;42918;-31
2023/04/15 04:29:38;;;;;;;6.10;3.90;;;;;;;;;;107623;286;42268;-31
2023/04/15 04:32:13;;;;;;;5.50;3.60;;;;;;;;;;107587;277;38969;-31
2023/04/15 04:34:48;;;;;;;5.20;4.00;;;;;;;;;;107629;283;39730;-31
2023/04/15 04:37:25;;;;;;;5.70;3.80;;;;;;;;;;107640;283;43003;-30
2023/04/15 04:40:03;;;;;;;5.70;3.70;;;;;;;;;;107594;285;41887;-31
2023/04/15 04:42:39;;;;;;;6.00;3.70;;;;;;;;;;107590;283;39224;-31
2023/04/15 04:45:14;;;;;;;5.80;3.90;;;;;;;;;;107631;283;39835;-31
2023/04/15 04:47:50;;;;;;;5.90;4.10;;;;;;;;;;107594;285;42805;-31
2023/04/15 04:50:26;;;;;;;5.40;3.90;;;;;;;;;;107604;285;41879;-31
2023/04/15 04:53:00;;;;;;;5.20;3.80;;;;;;;;;;107595;277;39288;-31
2023/04/15 04:55:36;;;;;;;4.90;3.70;;;;;;;;;;107595;285;39870;-30
2023/04/15 04:58:12;;;;;;;5.30;3.90;;;;;;;;;;107633;285;42977;-31
2023/04/15 05:00:47;;;;;;;5.30;3.60;;;;;;;;;;107497;277;176151;-30
2023/04/15 05:03:22;;;;;;;5.50;3.80;;;;;;;;;;107539;277;38812;-31
2023/04/15 05:05:59;;;;;;;5.50;3.90;;;;;;;;;;107643;285;39983;-31
2023/04/15 05:08:35;;;;;;;5.30;3.70;;;;;;;;;;107586;283;42911;-31
2023/04/15 05:11:14;;;;;;;5.10;4.00;;;;;;;;;;107632;283;42188;-31
2023/04/15 05:13:51;;;;;;;5.30;3.50;;;;;;;;;;107573;277;38886;-31
2023/04/15 05:16:27;;;;;;;5.40;4.00;;;;;;;;;;107626;285;39728;-30
2023/04/15 05:19:03;;;;;;;5.30;3.70;;;;;;;;;;107626;285;43169;-31
2023/04/15 05:21:38;;;;;;;5.20;3.70;;;;;;;;;;107622;283;42289;-31
2023/04/15 05:24:13;;;;;;;5.20;3.70;;;;;;;;;;107583;283;38790;-31
2023/04/15 05:26:47;;;;;;;5.60;3.80;;;;;;;;;;107629;283;39686;-31
2023/04/15 05:29:23;;;;;;;5.40;3.70;;;;;;;;;;107584;277;43079;-31
2023/04/15 05:31:58;;;;;;;5.60;3.80;;;;;;;;;;107615;285;42179;-30
2023/04/15 05:34:34;;;;;;;5.40;3.90;;;;;;;;;;107554;283;46220;-30
2023/04/15 05:37:10;;;;;;;6.00;3.80;;;;;;;;;;107613;277;39698;-31
2023/04/15 05:39:45;;;;;;;5.10;3.70;;;;;;;;;;107612;277;42645;-31
2023/04/15 05:42:23;;;;;;;5.30;3.80;;;;;;;;;;107575;283;43455;-30
2023/04/15 05:44:59;;;;;;;5.20;3.70;;;;;;;;;;107628;283;45397;-30
2023/04/15 05:47:36;;;;;;;5.10;3.80;;;;;;;;;;107615;285;39687;-30
2023/04/15 05:50:12;;;;;;;5.20;3.80;;;;;;;;;;107634;283;43038;-30
2023/04/15 05:52:49;;;;;;;6.20;4.10;;;;;;;;;;107469;283;175704;-30
2023/04/15 05:55:23;;;;;;;5.30;3.60;;;;;;;;;;107665;277;38927;-30
2023/04/15 05:58:00;;;;;;;5.10;3.80;;;;;;;;;;107645;281;39702;-30
2023/04/15 06:00:38;;;;;;;5.30;3.70;;;;;;;;;;107611;277;42850;-30
2023/04/15 06:03:14;;;;;;;5.20;3.70;;;;;;;;;;107601;277;42240;-30
2023/04/15 06:05:49;;;;;;;5.50;3.70;;;;;;;;;;107614;277;38823;-30
2023/04/15 06:08:27;;;;;;;5.20;3.60;;;;;;;;;;107615;285;39770;-31
2023/04/15 06:11:03;;;;;;;5.00;3.60;;;;;;;;;;107576;277;42693;-30
2023/04/15 06:13:40;;;;;;;5.00;3.50;;;;;;;;;;107584;284;42324;-30
2023/04/15 06:16:14;;;;;;;6.60;4.10;;;;;;;;;;107615;285;38798;-30
2023/04/15 06:18:50;;;;;;;5.10;3.50;;;;;;;;;;106955;277;893993;-30
2023/04/15 06:21:25;;;;;;;5.50;3.50;;;;;;;;;;107613;283;42848;-30
2023/04/15 06:24:02;;;;;;;5.70;3.50;;;;;;;;;;107558;285;43468;-30
2023/04/15 06:26:38;;;;;;;5.00;3.50;;;;;;;;;;107617;285;38786;-31
2023/04/15 06:29:14;;;;;;;5.20;3.40;;;;;;;;;;107603;285;39861;-29
2023/04/15 06:31:51;;;;;;;5.50;3.70;;;;;;;;;;107624;286;43929;-29
2023/04/15 06:34:27;;;;;;;5.20;3.60;;;;;;;;;;107582;285;42180;-29
2023/04/15 06:37:02;;;;;;;5.10;3.30;;;;;;;;;;107600;283;38923;-29
2023/04/15 06:39:39;;;;;;;4.90;3.30;;;;;;;;;;107640;283;39504;-29
2023/04/15 06:42:17;;;;;;;4.70;3.20;;;;;;;;;;107592;285;42885;-30
2023/04/15 06:44:52;;;;;;;5.00;3.50;;;;;;;;;;107479;288;43302;-29
2023/04/15 06:47:29;;;;;;;4.40;2.90;;;;;;;;;;107644;282;40004;-29
2023/04/15 06:50:06;;;;;;;4.80;3.20;;;;;;;;;;107554;282;40972;-29
2023/04/15 06:52:41;;;;;;;4.90;3.30;;;;;;;;;;107621;285;42820;-29
2023/04/15 06:55:19;;;;;;;5.30;3.10;;;;;;;;;;107575;283;42153;-29
2023/04/15 06:57:55;;;;;;;4.80;3.10;;;;;;;;;;107617;283;38608;-29
2023/04/15 07:00:32;;;;;;;5.00;3.30;;;;;;;;;;107671;277;40868;-29
2023/04/15 07:03:09;;;;;;;4.70;3.00;;;;;;;;;;107619;285;44004;-29
2023/04/15 07:05:45;;;;;;;5.10;3.30;;;;;;;;;;107569;285;42489;-29
2023/04/15 07:08:20;;;;;;;4.60;3.20;;;;;;;;;;107598;285;38871;-29
2023/04/15 07:10:57;;;;;;;4.80;3.10;;;;;;;;;;107634;285;39727;-30
2023/04/15 07:13:36;;;;;;;5.00;3.40;;;;;;;;;;107612;283;43969;-30
2023/04/15 07:16:14;;;;;;;4.90;3.30;;;;;;;;;;107598;282;42621;-30
2023/04/15 07:18:49;;;;;;;4.20;2.90;;;;;;;;;;107633;285;38822;-30
2023/04/15 07:21:22;;;;;;;4.60;3.10;;;;;;;;;;107617;285;39691;-30
2023/04/15 07:23:59;;;;;;;4.70;3.20;;;;;;;;;;107619;281;42888;-30
2023/04/15 07:26:34;;;;;;;4.50;3.00;;;;;;;;;;107581;283;41925;-30
2023/04/15 07:29:11;;;;;;;4.60;3.30;;;;;;;;;;107630;277;38808;-30
2023/04/15 07:31:46;;;;;;;4.70;3.20;;;;;;;;;;107618;285;40945;-30
2023/04/15 07:34:21;;;;;;;4.60;2.90;;;;;;;;;;107595;283;42739;-30
2023/04/15 07:36:58;;;;;;;5.10;3.30;;;;;;;;;;107603;283;42332;-30
2023/04/15 07:39:32;;;;;;;4.50;2.90;;;;;;;;;;107574;285;38797;-30
2023/04/15 07:42:06;;;;;;;5.40;3.20;;;;;;;;;;107635;285;39475;-30
2023/04/15 07:44:41;;;;;;;4.40;2.90;;;;;;;;;;107627;285;44015;-30
2023/04/15 07:47:18;;;;;;;4.80;3.20;;;;;;;;;;107548;283;47774;-30
2023/04/15 07:49:56;;;;;;;4.20;2.70;;;;;;;;;;107610;283;38804;-30
2023/04/15 07:52:37;;;;;;;4.20;3.00;;;;;;;;;;107605;285;39738;-30
2023/04/15 07:55:12;;;;;;;4.60;3.00;;;;;;;;;;107576;285;43440;-30
2023/04/15 07:57:49;;;;;;;4.20;2.60;;;;;;;;;;107505;283;175669;-30
2023/04/15 08:00:27;;;;;;;4.50;3.00;;;;;;;;;;107630;277;38823;-30
2023/04/15 08:03:03;;;;;;;4.50;2.80;;;;;;;;;;107625;285;39827;-29
2023/04/15 08:05:38;;;;;;;4.10;2.70;;;;;;;;;;107589;283;44831;-30
2023/04/15 08:08:15;;;;;;;4.30;3.00;;;;;;;;;;107622;285;41877;-29
2023/04/15 08:10:52;;;;;;;4.70;2.80;;;;;;;;;;107594;285;38789;-30
2023/04/15 08:13:28;;;;;;;4.30;2.70;;;;;;;;;;107650;285;39930;-30
2023/04/15 08:16:23;;;;;;;4.20;2.90;;;;;;;;;;107577;277;42681;-30
2023/04/15 08:18:59;;;;;;;4.10;2.60;;;;;;;;;;106862;285;895212;-30
2023/04/15 08:21:34;;;;;;;4.40;2.70;;;;;;;;;;107635;285;38834;-30
2023/04/15 08:24:10;;;;;;;4.00;2.60;;;;;;;;;;107614;285;39865;-30
2023/04/15 08:26:46;;;;;;;4.10;2.50;;;;;;;;;;107563;285;42906;-31
2023/04/15 08:29:20;;;;;;;4.00;2.50;;;;;;;;;;107649;283;42302;-31
2023/04/15 08:31:58;;;;;;;4.30;2.40;;;;;;;;;;107632;285;39970;-31
2023/04/15 08:34:35;;;;;;;4.30;2.80;;;;;;;;;;107628;285;41811;-31
2023/04/15 08:37:12;;;;;;;4.10;2.60;;;;;;;;;;107568;283;44057;-31
2023/04/15 08:39:52;;;;;;;4.10;2.50;;;;;;;;;;107630;285;42169;-31
2023/04/15 08:42:34;;;;;;;4.40;2.70;;;;;;;;;;107591;285;38794;-31
2023/04/15 08:45:12;;;;;;;3.80;2.30;;;;;;;;;;107620;285;39902;-31
2023/04/15 08:47:49;;;;;;;5.00;2.50;;;;;;;;;;107578;285;42950;-31
2023/04/15 08:50:24;;;;;;;4.60;2.70;;;;;;;;;;107586;289;42125;-31
2023/04/15 08:53:00;;;;;;;3.80;2.20;;;;;;;;;;107619;285;38914;-31
2023/04/15 08:55:47;;;;;;;3.80;2.30;;;;;;;;;;107613;285;39836;-31
2023/04/15 08:58:22;;;;;;;3.90;2.30;;;;;;;;;;107565;283;43311;-31
2023/04/15 09:00:59;;;;;;;4.20;2.40;;;;;;;;;;107614;283;42184;-31
2023/04/15 09:03:36;;;;;;;3.70;2.20;;;;;;;;;;107635;283;38761;-31
2023/04/15 09:06:11;;;;;;;3.50;2.10;;;;;;;;;;107622;285;39828;-31
2023/04/15 09:08:50;;;;;;;4.30;2.40;;;;;;;;;;107598;284;42887;-31
2023/04/15 09:11:24;;;;;;;4.20;2.60;;;;;;;;;;107628;277;42315;-31
2023/04/15 09:13:59;;;;;;;4.10;2.40;;;;;;;;;;107624;285;38813;-31
2023/04/15 09:16:33;;;;;;;4.80;2.50;;;;;;;;;;107622;285;39742;-31
2023/04/15 09:19:26;;;;;;;4.40;2.40;;;;;;;;;;107551;286;42848;-31
2023/04/15 09:22:03;;;;;;;4.70;2.40;;;;;;;;;;107614;283;43303;-31
2023/04/15 09:24:43;;;;;;;4.20;2.40;;;;;;;;;;107645;285;38840;-31
2023/04/15 09:27:22;;;;;;;4.90;2.40;;;;;;;;;;107598;285;39455;-31
2023/04/15 09:29:58;;;;;;;4.30;2.20;;;;;;;;;;107628;285;44111;-31
2023/04/15 09:32:35;;;;;;;4.50;2.40;;;;;;;;;;107639;277;41921;-31
2023/04/15 09:35:17;;;;;;;4.10;2.20;;;;;;;;;;107608;285;38883;-31
2023/04/15 09:37:54;;;;;;;4.20;2.10;;;;;;;;;;107614;285;39722;-31
2023/04/15 09:40:40;;;;;;;4.10;2.10;;;;;;;;;;107178;286;435616;-31
2023/04/15 09:43:19;;;;;;;4.50;2.00;;;;;;;;;;107614;283;43401;-31
2023/04/15 09:45:55;;;;;;;4.30;2.00;;;;;;;;;;107536;285;176113;-31
2023/04/15 09:48:31;;;;;;;3.90;2.30;;;;;;;;;;107586;284;39644;-31
2023/04/15 09:51:10;;;;;;;4.00;2.00;;;;;;;;;;107599;285;42857;-31
2023/04/15 09:53:47;;;;;;;3.70;2.00;;;;;;;;;;107609;285;44467;-31
2023/04/15 09:56:24;;;;;;;3.90;2.00;;;;;;;;;;107631;285;39919;-31
2023/04/15 09:59:02;;;;;;;3.60;1.70;;;;;;;;;;107553;277;41560;-31
2023/04/15 10:01:38;;;;;;;4.20;2.00;;;;;;;;;;107588;285;42925;-31
2023/04/15 10:04:15;;;;;;;4.10;2.20;;;;;;;;;;107633;285;41927;-31
2023/04/15 10:06:52;;;;;;;3.70;1.90;;;;;;;;;;107631;285;40051;-31
2023/04/15 10:09:29;;;;;;;4.30;1.90;;;;;;;;;;107558;282;41035;-31
2023/04/15 10:12:08;;;;;;;3.80;1.90;;;;;;;;;;107598;286;43040;-31
2023/04/15 10:14:44;;;;;;;3.60;2.00;;;;;;;;;;107604;285;42118;-31
2023/04/15 10:17:23;;;;;;;4.10;1.90;;;;;;;;;;107624;285;40884;-31
2023/04/15 10:19:59;;;;;;;4.80;1.90;;;;;;;;;;107612;281;39750;-31
2023/04/15 10:22:33;;;;;;;3.60;1.90;;;;;;;;;;107613;285;42690;-31
2023/04/15 10:25:09;;;;;;;3.60;1.90;;;;;;;;;;107638;285;42204;-31
2023/04/15 10:27:47;;;;;;;3.70;1.90;;;;;;;;;;107624;285;38909;-31
2023/04/15 10:30:23;;;;;;;3.80;1.80;;;;;;;;;;107578;285;39705;-31
2023/04/15 10:32:57;;;;;;;4.10;2.10;;;;;;;;;;107601;285;42645;-31
2023/04/15 10:35:32;;;;;;;4.30;1.90;;;;;;;;;;107606;285;42252;-31
2023/04/15 10:38:39;;;;;;;4.40;1.70;;;;;;;;;;107598;285;38829;-31
2023/04/15 10:41:21;;;;;;;3.90;1.70;;;;;;;;;;107700;285;45013;-31
2023/04/15 10:44:00;;;;;;;3.70;1.90;;;;;;;;;;107592;283;43316;-31
2023/04/15 10:46:41;;;;;;;3.20;1.60;;;;;;;;;;107634;283;42054;-31
2023/04/15 10:49:25;;;;;;;3.60;1.80;;;;;;;;;;107449;284;192145;-31
2023/04/15 10:52:02;;;;;;;3.70;1.80;;;;;;;;;;107604;285;40193;-31
2023/04/15 10:54:38;;;;;;;3.50;1.70;;;;;;;;;;107613;283;42806;-31
2023/04/15 10:57:22;;;;;;;3.30;1.60;;;;;;;;;;107609;285;42168;-31
2023/04/15 11:00:14;;;;;;;3.70;1.70;;;;;;;;;;107587;277;38825;-31
2023/04/15 11:02:53;;;;;;;3.40;1.60;;;;;;;;;;107621;283;39640;-31
2023/04/15 11:05:58;;;;;;;3.70;1.50;;;;;;;;;;107608;277;42628;-31
2023/04/15 11:09:08;;;;;;;3.70;1.80;;;;;;;;;;107597;285;42601;-32
2023/04/15 11:12:09;;;;;;;3.80;1.70;;;;;;;;;;107609;285;38567;-31
2023/04/15 11:14:44;;;;;;;3.30;1.70;;;;;;;;;;107496;283;175661;-31
2023/04/15 11:17:28;;;;;;;3.40;1.60;;;;;;;;;;107622;277;42999;-31
2023/04/15 11:20:06;;;;;;;3.70;1.50;;;;;;;;;;107571;285;42086;-31
2023/04/15 11:22:48;;;;;;;3.40;1.60;;;;;;;;;;107627;283;38828;-31
2023/04/15 11:25:30;;;;;;;3.30;1.60;;;;;;;;;;107629;284;39928;-31
2023/04/15 11:28:06;;;;;;;3.50;1.70;;;;;;;;;;107614;285;44122;-31
2023/04/15 11:30:40;;;;;;;3.30;1.70;;;;;;;;;;107562;285;42404;-31
2023/04/15 11:33:17;;;;;;;3.10;1.60;;;;;;;;;;107589;277;39853;-31
2023/04/15 11:35:54;;;;;;;4.50;1.90;;;;;;;;;;107624;285;41158;-31
2023/04/15 11:38:30;;;;;;;4.20;2.00;;;;;;;;;;107629;285;42877;-31
2023/04/15 11:41:05;;;;;;;3.60;1.60;;;;;;;;;;107603;285;41943;-31
2023/04/15 11:43:40;;;;;;;3.60;1.80;;;;;;;;;;107600;283;39885;-31
2023/04/15 11:46:14;;;;;;;3.70;1.90;;;;;;;;;;107511;283;175691;-31
2023/04/15 11:48:50;;;;;;;3.50;1.80;;;;;;;;;;107591;283;43038;-31
2023/04/15 11:51:26;;;;;;;3.60;1.80;;;;;;;;;;107541;283;42146;-31
2023/04/15 11:53:59;;;;;;;3.60;1.70;;;;;;;;;;107532;283;38866;-31
2023/04/15 11:56:36;;;;;;;3.50;1.80;;;;;;;;;;107594;285;39898;-31
2023/04/15 11:59:12;;;;;;;4.30;1.80;;;;;;;;;;107619;283;42876;-31
2023/04/15 12:01:49;;;;;;;3.60;1.70;;;;;;;;;;107546;286;42213;-31
2023/04/15 12:04:25;;;;;;;3.70;1.90;;;;;;;;;;107610;285;39085;-31
2023/04/15 12:07:09;;;;;;;3.80;1.80;;;;;;;;;;107629;285;39879;-31
2023/04/15 12:09:45;;;;;;;3.50;1.80;;;;;;;;;;107606;283;42891;-31
2023/04/15 12:12:22;;;;;;;4.30;2.00;;;;;;;;;;107540;285;43211;-31
2023/04/15 12:14:58;;;;;;;3.70;2.00;;;;;;;;;;107559;285;38974;-31
2023/04/15 12:17:35;;;;;;;4.00;2.00;;;;;;;;;;107637;285;39726;-31
2023/04/15 12:20:28;;;;;;;3.70;1.70;;;;;;;;;;107624;285;44122;-31
2023/04/15 12:23:10;;;;;;;4.60;2.00;;;;;;;;;;107589;286;43294;-31
2023/04/15 12:25:52;;;;;;;4.00;1.90;;;;;;;;;;107533;286;39953;-31
2023/04/15 12:28:26;;;;;;;4.20;1.90;;;;;;;;;;107617;285;39751;-31
2023/04/15 12:31:04;;;;;;;3.70;2.00;;;;;;;;;;107627;285;42930;-31
2023/04/15 12:33:39;;;;;;;4.20;1.90;;;;;;;;;;107568;283;48301;-31
2023/04/15 12:36:14;;;;;;;4.30;1.70;;;;;;;;;;107482;283;175659;-31
2023/04/15 12:38:50;;;;;;;3.90;2.00;;;;;;;;;;107604;283;41308;-31
2023/04/15 12:41:25;;;;;;;3.30;1.80;;;;;;;;;;107611;285;44210;-31
2023/04/15 12:44:01;;;;;;;3.70;1.80;;;;;;;;;;107600;283;48411;-31
2023/04/15 12:46:38;;;;;;;5.50;2.00;;;;;;;;;;107618;285;39924;-31
2023/04/15 12:49:15;;;;;;;3.60;2.00;;;;;;;;;;107602;283;40877;-31
2023/04/15 12:51:52;;;;;;;3.70;2.00;;;;;;;;;;107598;285;44337;-31
2023/04/15 12:54:28;;;;;;;3.60;1.80;;;;;;;;;;107572;286;49466;-31
2023/04/15 12:57:04;;;;;;;3.80;2.00;;;;;;;;;;107607;285;39676;-31
2023/04/15 12:59:39;;;;;;;3.50;1.90;;;;;;;;;;107616;285;40829;-31
2023/04/15 13:02:13;;;;;;;3.50;1.80;;;;;;;;;;107579;285;42992;-32
2023/04/15 13:04:52;;;;;;;3.90;1.80;;;;;;;;;;107667;285;48425;-32
2023/04/15 13:07:30;;;;;;;4.20;1.90;;;;;;;;;;107621;286;38956;-32
2023/04/15 13:10:06;;;;;;;3.70;1.90;;;;;;;;;;107628;285;40137;-32
2023/04/15 13:12:40;;;;;;;3.60;1.80;;;;;;;;;;107615;283;42885;-32
2023/04/15 13:15:19;;;;;;;4.20;1.90;;;;;;;;;;107625;283;42207;-31
2023/04/15 13:17:54;;;;;;;3.60;1.80;;;;;;;;;;107622;285;38793;-32
2023/04/15 13:20:30;;;;;;;4.40;2.10;;;;;;;;;;107635;285;39840;-32
2023/04/15 13:23:04;;;;;;;3.70;1.90;;;;;;;;;;107588;285;42940;-31
2023/04/15 13:25:40;;;;;;;4.70;1.90;;;;;;;;;;107558;285;42160;-30
2023/04/15 13:28:15;;;;;;;3.50;1.90;;;;;;;;;;107613;285;38797;-30
2023/04/15 13:30:54;;;;;;;3.50;1.70;;;;;;;;;;107521;285;176830;-30
2023/04/15 13:33:29;;;;;;;3.70;1.90;;;;;;;;;;107571;283;42703;-30
2023/04/15 13:36:03;;;;;;;4.00;2.00;;;;;;;;;;107626;285;42299;-30
2023/04/15 13:38:40;;;;;;;5.40;2.20;;;;;;;;;;107637;285;38819;-31
2023/04/15 13:41:13;;;;;;;5.40;2.10;;;;;;;;;;107614;283;39735;-31
2023/04/15 13:43:49;;;;;;;4.60;2.10;;;;;;;;;;107587;285;42878;-31
2023/04/15 13:46:25;;;;;;;5.30;2.30;;;;;;;;;;107613;283;42157;-31
2023/04/15 13:49:00;;;;;;;5.70;2.40;;;;;;;;;;107621;285;38942;-31
2023/04/15 13:51:36;;;;;;;5.00;2.30;;;;;;;;;;107588;285;39683;-31
2023/04/15 13:54:10;;;;;;;6.10;2.50;;;;;;;;;;107568;286;44013;-30
2023/04/15 13:56:46;;;;;;;6.10;2.30;;;;;;;;;;107628;285;42157;-30
2023/04/15 13:59:20;;;;;;;5.20;2.50;;;;;;;;;;107627;285;38961;-30
2023/04/15 14:01:54;;;;;;;5.60;2.40;;;;;;;;;;107582;285;40867;-31
2023/04/15 14:04:30;;;;;;;5.40;2.00;;;;;;;;;;107426;285;177381;-30
2023/04/15 14:07:04;;;;;;;5.00;2.10;;;;;;;;;;107629;282;42360;-30
2023/04/15 14:09:40;;;;;;;5.80;2.40;;;;;;;;;;107608;285;38785;-30
2023/04/15 14:12:17;;;;;;;5.70;2.10;;;;;;;;;;107605;283;39851;-30
2023/04/15 14:14:53;;;;;;;6.30;2.40;;;;;;;;;;107570;283;42885;-30
2023/04/15 14:17:28;;;;;;;5.90;2.20;;;;;;;;;;107603;285;43464;-32
2023/04/15 14:20:05;;;;;;;5.20;2.10;;;;;;;;;;107629;285;39928;-30
2023/04/15 14:22:39;;;;;;;6.20;2.10;;;;;;;;;;107615;283;39747;-30
2023/04/15 14:25:12;;;;;;;5.40;2.40;;;;;;;;;;107580;285;42860;-30
2023/04/15 14:28:04;;;;;;;5.30;2.20;;;;;;;;;;107603;285;42337;-31
2023/04/15 14:30:39;;;;;;;4.90;2.20;;;;;;;;;;107612;284;38550;-31
2023/04/15 14:33:17;;;;;;;5.10;2.10;;;;;;;;;;107643;285;39731;-31
2023/04/15 14:35:53;;;;;;;5.50;1.90;;;;;;;;;;107578;285;43081;-30
2023/04/15 14:38:27;;;;;;;6.10;2.30;;;;;;;;;;107600;290;43379;-30
2023/04/15 14:41:03;;;;;;;5.00;2.20;;;;;;;;;;107630;285;38845;-31
2023/04/15 14:43:37;;;;;;;5.00;2.30;;;;;;;;;;107611;285;40875;-31
2023/04/15 14:46:13;;;;;;;5.30;1.90;;;;;;;;;;107581;283;42926;-31
2023/04/15 14:48:47;;;;;;;4.60;2.10;;;;;;;;;;107612;285;43306;-31
2023/04/15 14:51:21;;;;;;;4.80;2.40;;;;;;;;;;107601;285;38826;-31
2023/04/15 14:53:54;;;;;;;4.40;2.20;;;;;;;;;;107630;285;40923;-31
2023/04/15 14:56:27;;;;;;;5.20;2.10;;;;;;;;;;107564;283;43945;-31
2023/04/15 14:59:02;;;;;;;4.90;2.40;;;;;;;;;;107616;285;42166;-31
2023/04/15 15:01:39;;;;;;;4.60;2.10;;;;;;;;;;107618;277;38762;-31
2023/04/15 15:04:17;;;;;;;5.50;2.40;;;;;;;;;;107623;277;39870;-31
2023/04/15 15:06:52;;;;;;;4.00;2.10;;;;;;;;;;107615;283;44910;-31
2023/04/15 15:09:26;;;;;;;3.80;1.90;;;;;;;;;;107625;285;43701;-31
2023/04/15 15:12:02;;;;;;;5.00;2.10;;;;;;;;;;107640;285;39071;-31
2023/04/15 15:14:39;;;;;;;4.80;2.00;;;;;;;;;;107624;282;40977;-30
2023/04/15 15:17:16;;;;;;;5.60;2.10;;;;;;;;;;107584;285;48777;-30
2023/04/15 15:19:50;;;;;;;4.60;2.00;;;;;;;;;;107618;277;44276;-31
2023/04/15 15:22:27;;;;;;;5.60;2.00;;;;;;;;;;107623;283;40602;-30
2023/04/15 15:25:02;;;;;;;4.30;2.00;;;;;;;;;;107595;285;39853;-30
2023/04/15 15:27:38;;;;;;;4.60;2.00;;;;;;;;;;107610;283;42854;-30
2023/04/15 15:30:14;;;;;;;5.60;2.20;;;;;;;;;;107624;285;42149;-31
2023/04/15 15:32:51;;;;;;;4.60;2.00;;;;;;;;;;107614;285;38822;-31
2023/04/15 15:35:29;;;;;;;4.50;1.80;;;;;;;;;;107614;282;40807;-31
2023/04/15 15:38:04;;;;;;;4.20;1.90;;;;;;;;;;107599;285;42952;-31
2023/04/15 15:40:41;;;;;;;4.60;2.00;;;;;;;;;;107622;283;42151;-31